createdAt,value
2022-11-12T00:00:13.119Z,14.00
2022-11-12T00:02:40.380Z,18.93
2022-11-12T00:05:10.576Z,14.83
2022-11-12T00:07:37.926Z,19.00
2022-11-12T00:10:06.050Z,19.20
2022-11-12T00:12:33.288Z,16.33
2022-11-12T00:15:00.513Z,15.63
2022-11-12T00:17:29.588Z,19.43
2022-11-12T00:19:56.692Z,16.87
2022-11-12T00:22:23.666Z,15.33
2022-11-12T00:24:50.794Z,21.73
2022-11-12T00:27:18.096Z,20.10
2022-11-12T00:29:45.028Z,15.50
2022-11-12T00:32:15.148Z,17.30
2022-11-12T00:34:43.661Z,16.40
2022-11-12T00:37:16.439Z,16.33
2022-11-12T00:39:43.724Z,17.10
2022-11-12T00:42:11.433Z,15.13
2022-11-12T00:44:38.475Z,15.07
2022-11-12T00:47:08.280Z,15.57
2022-11-12T00:49:35.222Z,18.30
2022-11-12T00:52:10.876Z,17.47
2022-11-12T00:54:37.854Z,15.37
2022-11-12T00:57:05.780Z,17.13
2022-11-12T00:59:32.657Z,16.80
2022-11-12T01:01:59.626Z,17.03
2022-11-12T01:04:29.204Z,15.90
2022-11-12T01:06:59.061Z,14.43
2022-11-12T01:09:27.542Z,15.33
2022-11-12T01:11:55.329Z,15.00
2022-11-12T01:14:22.257Z,14.80
2022-11-12T01:16:49.194Z,15.87
2022-11-12T01:19:16.217Z,15.53
2022-11-12T01:21:44.646Z,14.17
2022-11-12T01:24:12.126Z,17.97
2022-11-12T01:26:40.161Z,14.93
2022-11-12T01:29:09.812Z,18.03
2022-11-12T01:31:39.908Z,15.13
2022-11-12T01:34:08.668Z,17.57
2022-11-12T01:36:41.180Z,17.77
2022-11-12T01:39:09.254Z,15.30
2022-11-12T01:41:39.181Z,19.77
2022-11-12T01:44:14.893Z,17.33
2022-11-12T01:47:09.729Z,19.43
2022-11-12T01:49:54.278Z,18.47
2022-11-12T01:52:35.075Z,30.77
2022-11-12T01:55:12.041Z,18.23
2022-11-12T01:57:47.646Z,15.40
2022-11-12T02:00:18.676Z,16.50
2022-11-12T02:02:52.095Z,19.97
2022-11-12T02:05:20.710Z,19.47
2022-11-12T02:07:48.897Z,16.70
2022-11-12T02:10:16.121Z,17.03
2022-11-12T02:13:07.928Z,17.67
2022-11-12T02:15:34.956Z,17.13
2022-11-12T02:20:42.909Z,17.40
2022-11-12T02:23:11.148Z,19.13
2022-11-12T02:25:48.830Z,20.33
2022-11-12T02:33:39.367Z,15.47
2022-11-12T02:36:06.529Z,18.30
2022-11-12T02:41:15.023Z,18.53
2022-11-12T02:43:45.065Z,19.73
2022-11-12T02:46:13.161Z,18.63
2022-11-12T02:54:05.125Z,21.07
2022-11-12T02:56:35.741Z,18.47
2022-11-12T03:01:55.160Z,18.70
2022-11-12T03:04:22.597Z,17.30
2022-11-12T03:06:49.957Z,18.57
2022-11-12T03:09:35.958Z,18.90
2022-11-12T03:25:58.982Z,18.47
2022-11-12T03:31:09.263Z,18.73
2022-11-12T03:33:38.224Z,21.58
2022-11-12T03:36:06.045Z,19.83
2022-11-12T03:46:40.134Z,18.43
2022-11-12T03:49:10.851Z,20.50
2022-11-12T04:56:06.050Z,20.07
2022-11-12T04:58:36.937Z,20.83
2022-11-12T05:01:04.277Z,20.13
2022-11-12T05:03:36.293Z,19.87
2022-11-12T07:48:52.673Z,16.80
2022-11-12T07:51:29.336Z,13.80
2022-11-12T07:54:01.373Z,13.13
2022-11-12T07:59:19.874Z,11.57
2022-11-12T08:02:15.788Z,11.07
2022-11-12T08:04:47.850Z,10.73
2022-11-12T08:07:21.059Z,13.53
2022-11-12T08:09:56.260Z,12.13
2022-11-12T08:21:05.530Z,10.27
2022-11-12T08:23:53.461Z,10.50
2022-11-12T08:26:37.513Z,10.17
2022-11-12T08:29:37.073Z,11.07
2022-11-12T08:34:42.171Z,12.83
2022-11-12T08:43:51.972Z,10.97
2022-11-12T08:47:03.723Z,10.63
2022-11-12T08:49:31.158Z,11.53
2022-11-12T08:52:01.251Z,12.13
2022-11-12T08:54:32.989Z,9.90
2022-11-12T08:57:05.905Z,9.60
2022-11-12T09:07:51.987Z,11.43
2022-11-12T09:13:06.216Z,9.57
2022-11-12T09:18:18.432Z,9.03
2022-11-12T09:23:27.556Z,9.53
2022-11-12T09:26:27.176Z,10.47
2022-11-12T09:31:52.746Z,9.47
2022-11-12T09:34:23.836Z,8.10
2022-11-12T10:47:16.733Z,9.90
2022-11-12T10:49:43.883Z,12.13
2022-11-12T10:52:31.465Z,12.30
2022-11-12T10:55:18.490Z,8.50
2022-11-12T11:01:20.283Z,7.83
2022-11-12T11:04:15.640Z,8.60
2022-11-12T11:09:59.198Z,7.93
2022-11-12T11:28:18.057Z,10.50
2022-11-12T11:45:02.814Z,6.30
2022-11-12T11:47:59.414Z,7.13
2022-11-12T11:50:33.831Z,8.50
2022-11-12T11:53:25.141Z,6.63
2022-11-12T12:41:32.709Z,6.50
2022-11-12T13:37:23.640Z,5.73
2022-11-12T13:39:51.307Z,9.93
2022-11-12T13:42:37.647Z,6.47
2022-11-12T13:45:06.323Z,6.33
2022-11-12T13:47:33.928Z,9.07
2022-11-12T13:50:02.080Z,6.07
2022-11-12T13:52:29.770Z,7.13
2022-11-12T13:55:06.395Z,7.97
2022-11-12T13:57:33.923Z,5.57
2022-11-12T14:00:20.886Z,8.60
2022-11-12T14:02:58.332Z,7.03
2022-11-12T14:05:36.469Z,4.53
2022-11-12T14:08:17.972Z,5.80
2022-11-12T14:10:58.557Z,4.77
2022-11-12T14:13:50.108Z,6.03
2022-11-12T14:16:34.586Z,5.47
2022-11-12T14:19:17.047Z,4.40
2022-11-12T14:21:58.036Z,4.27
2022-11-12T14:24:25.098Z,5.23
2022-11-12T14:26:56.543Z,5.90
2022-11-12T14:30:00.312Z,4.33
2022-11-12T14:35:30.392Z,6.03
2022-11-12T14:38:06.802Z,5.07
2022-11-12T14:44:49.542Z,4.43
2022-11-12T14:50:00.721Z,4.73
2022-11-12T14:55:50.603Z,5.57
2022-11-12T15:02:21.770Z,4.93
2022-11-12T15:08:58.544Z,5.50
2022-11-12T15:11:48.485Z,5.73
2022-11-12T15:14:26.367Z,6.47
2022-11-12T15:16:54.173Z,7.93
2022-11-12T15:19:24.961Z,5.17
2022-11-12T15:22:01.541Z,6.17
2022-11-12T15:24:39.677Z,5.40
2022-11-12T15:27:41.870Z,5.20
2022-11-12T15:30:25.040Z,4.47
2022-11-12T15:33:13.892Z,6.17
2022-11-12T15:35:44.931Z,5.80
2022-11-12T15:38:26.377Z,7.77
2022-11-12T15:40:57.648Z,8.10
2022-11-12T15:43:43.097Z,8.30
2022-11-12T15:46:15.962Z,5.13
2022-11-12T15:48:43.185Z,6.30
2022-11-12T15:51:15.851Z,8.37
2022-11-12T15:53:42.901Z,7.67
2022-11-12T15:56:17.873Z,6.20
2022-11-12T15:58:45.197Z,7.13
2022-11-12T16:01:13.337Z,9.37
2022-11-12T16:03:41.070Z,8.03
2022-11-12T16:06:12.308Z,8.73
2022-11-12T16:08:39.715Z,6.30
2022-11-12T16:11:28.496Z,7.30
2022-11-12T16:13:56.012Z,6.43
2022-11-12T16:16:23.353Z,9.23
2022-11-12T16:18:52.678Z,10.90
2022-11-12T16:21:21.132Z,9.90
2022-11-12T16:23:48.298Z,9.80
2022-11-12T16:26:19.277Z,11.80
2022-11-12T16:28:46.376Z,14.23
2022-11-12T16:31:13.553Z,12.77
2022-11-12T16:33:40.604Z,13.23
2022-11-12T16:36:15.968Z,15.77
2022-11-12T16:38:43.724Z,11.77
2022-11-12T16:41:12.373Z,11.13
2022-11-12T16:43:40.373Z,9.33
2022-11-12T16:46:14.843Z,10.13
2022-11-12T16:48:42.447Z,10.83
2022-11-12T16:51:19.449Z,12.50
2022-11-12T16:56:37.093Z,10.53
2022-11-12T16:59:07.639Z,13.20
2022-11-12T17:01:36.042Z,16.87
2022-11-12T17:04:07.226Z,18.67
2022-11-12T17:09:27.097Z,26.97
2022-11-12T17:14:37.603Z,48.90
2022-11-12T17:17:05.664Z,45.93
2022-11-12T17:19:32.931Z,37.13
2022-11-12T17:22:00.654Z,34.73
2022-11-12T17:24:36.800Z,31.50
2022-11-12T17:27:04.551Z,30.77
2022-11-12T17:29:32.014Z,27.90
2022-11-12T17:31:59.620Z,41.30
2022-11-12T17:34:27.134Z,33.40
2022-11-12T17:36:54.396Z,31.17
2022-11-12T17:39:23.008Z,29.17
2022-11-12T17:41:50.544Z,29.90
2022-11-12T17:44:20.286Z,25.07
2022-11-12T17:46:48.552Z,25.13
2022-11-12T17:49:21.980Z,25.33
2022-11-12T17:51:49.516Z,31.40
2022-11-12T17:54:16.656Z,28.83
2022-11-12T17:56:43.829Z,28.43
2022-11-12T17:59:10.883Z,29.70
2022-11-12T18:01:38.069Z,29.90
2022-11-12T18:04:05.272Z,34.10
2022-11-12T18:06:34.473Z,30.93
2022-11-12T18:09:07.266Z,33.80
2022-11-12T18:11:46.484Z,41.33
2022-11-12T18:14:17.126Z,49.10
2022-11-12T18:16:44.695Z,54.37
2022-11-12T18:19:12.619Z,47.23
2022-11-12T18:21:40.930Z,130.90
2022-11-12T18:24:14.132Z,184.33
2022-11-12T18:26:41.339Z,201.90
2022-11-12T18:29:08.694Z,130.57
2022-11-12T18:31:35.941Z,72.93
2022-11-12T18:34:02.989Z,74.63
2022-11-12T18:36:30.227Z,79.23
2022-11-12T18:38:57.466Z,55.27
2022-11-12T18:41:27.312Z,66.70
2022-11-12T18:43:58.907Z,66.37
2022-11-12T18:46:25.954Z,68.20
2022-11-12T18:48:53.232Z,57.90
2022-11-12T18:51:20.312Z,68.60
2022-11-12T18:53:48.572Z,67.93
2022-11-12T18:56:19.123Z,60.13
2022-11-12T19:01:32.490Z,58.53
2022-11-12T19:06:43.085Z,51.43
2022-11-12T19:17:15.880Z,54.63
2022-11-12T19:19:42.924Z,50.50
2022-11-12T19:22:11.411Z,55.50
2022-11-12T19:24:38.422Z,47.63
2022-11-12T19:27:05.961Z,43.07
2022-11-12T19:29:33.178Z,34.10
2022-11-12T19:32:00.213Z,31.67
2022-11-12T19:34:28.817Z,24.27
2022-11-12T19:37:31.937Z,38.63
2022-11-12T19:39:53.692Z,57.40
2022-11-12T19:42:20.739Z,44.27
2022-11-12T19:44:48.758Z,41.37
2022-11-12T19:47:17.500Z,46.90
2022-11-12T19:52:26.529Z,46.33
2022-11-12T19:54:53.711Z,88.13
2022-11-12T19:57:20.937Z,69.27
2022-11-12T19:59:48.149Z,63.40
2022-11-12T20:02:15.448Z,52.57
2022-11-12T20:04:44.164Z,70.87
2022-11-12T20:07:11.766Z,57.63
2022-11-12T20:09:40.257Z,50.70
2022-11-12T20:12:07.690Z,59.57
2022-11-12T20:14:34.969Z,64.17
2022-11-12T20:17:02.762Z,63.97
2022-11-12T20:19:29.954Z,60.53
2022-11-12T20:21:58.028Z,62.60
2022-11-12T20:24:25.466Z,59.23
2022-11-12T20:26:53.263Z,51.33
2022-11-12T20:29:23.364Z,52.60
2022-11-12T20:31:50.686Z,48.03
2022-11-12T20:34:18.006Z,45.70
2022-11-12T20:36:45.465Z,42.50
2022-11-12T20:39:13.170Z,44.23
2022-11-12T20:41:41.128Z,51.80
2022-11-12T20:44:08.741Z,67.33
2022-11-12T20:54:52.465Z,62.03
2022-11-12T20:57:22.367Z,56.87
2022-11-12T20:59:51.521Z,54.07
2022-11-12T21:02:20.631Z,57.57
2022-11-12T21:04:48.863Z,54.17
2022-11-12T21:07:16.167Z,48.30
2022-11-12T21:09:43.937Z,50.17
2022-11-12T21:12:14.200Z,56.73
2022-11-12T21:14:50.053Z,47.60
2022-11-12T21:20:22.231Z,43.57
2022-11-12T21:23:00.710Z,46.50
2022-11-12T21:25:42.085Z,46.17
2022-11-12T21:44:51.329Z,52.33
2022-11-12T21:47:21.990Z,50.17
2022-11-12T21:49:49.519Z,52.27
2022-11-12T21:52:19.593Z,54.83
2022-11-12T21:57:28.943Z,53.53
2022-11-12T22:02:38.802Z,50.87
2022-11-12T22:07:54.210Z,57.97
2022-11-12T22:10:21.388Z,49.27
2022-11-12T22:13:24.706Z,52.23
2022-11-12T22:15:42.362Z,49.17
2022-11-12T22:18:09.569Z,54.00
2022-11-12T22:20:40.265Z,51.63
2022-11-12T22:23:11.450Z,46.73
2022-11-12T22:28:19.809Z,48.33
2022-11-12T22:30:48.903Z,50.47
2022-11-12T22:33:16.425Z,54.90
2022-11-12T22:35:44.213Z,53.90
2022-11-12T22:38:23.560Z,50.63
2022-11-12T22:41:01.248Z,49.87
2022-11-12T22:43:28.274Z,50.10
2022-11-12T22:45:55.357Z,47.80
2022-11-12T22:48:22.497Z,55.00
2022-11-12T22:50:50.100Z,49.67
2022-11-12T22:53:17.314Z,52.07
2022-11-12T22:55:44.478Z,51.27
2022-11-12T22:58:14.260Z,47.63
2022-11-12T23:00:44.514Z,46.47
2022-11-12T23:08:39.581Z,46.23
2022-11-12T23:11:28.555Z,46.67
2022-11-12T23:13:56.670Z,46.63
2022-11-12T23:16:32.432Z,47.57
2022-11-12T23:19:00.871Z,50.23
2022-11-12T23:24:11.237Z,50.60
2022-11-12T23:26:38.876Z,52.97
2022-11-12T23:29:06.204Z,54.63
2022-11-12T23:31:33.780Z,57.13
2022-11-12T23:34:01.720Z,54.70
2022-11-12T23:36:32.662Z,50.60
2022-11-12T23:39:00.427Z,52.00
2022-11-12T23:41:28.838Z,53.97
2022-11-12T23:43:57.164Z,48.67
2022-11-12T23:46:24.513Z,50.53
2022-11-12T23:48:51.643Z,49.23
2022-11-12T23:51:20.671Z,52.90
2022-11-12T23:53:50.593Z,49.03
2022-11-12T23:56:21.537Z,50.70
2022-11-12T23:58:57.888Z,48.33
